sensor_id;sensor_type;location;lat;lon;timestamp;P1;durP1;ratioP1;P2;durP2;ratioP2
63286;SDS011;49410;55.708;37.522;2022-12-07T00:00:53;7.03;;;2.97;;
63286;SDS011;49410;55.708;37.522;2022-12-07T00:03:19;7.30;;;3.20;;
63286;SDS011;49410;55.708;37.522;2022-12-07T00:05:45;6.97;;;3.05;;
63286;SDS011;49410;55.708;37.522;2022-12-07T00:08:10;6.00;;;2.75;;
63286;SDS011;49410;55.708;37.522;2022-12-07T00:10:36;8.45;;;2.67;;
63286;SDS011;49410;55.708;37.522;2022-12-07T00:13:02;9.25;;;2.85;;
63286;SDS011;49410;55.708;37.522;2022-12-07T00:15:27;8.75;;;2.97;;
63286;SDS011;49410;55.708;37.522;2022-12-07T00:17:53;8.27;;;2.70;;
63286;SDS011;49410;55.708;37.522;2022-12-07T00:20:18;7.07;;;3.05;;
63286;SDS011;49410;55.708;37.522;2022-12-07T00:22:44;7.50;;;3.05;;
63286;SDS011;49410;55.708;37.522;2022-12-07T00:25:09;5.55;;;1.75;;
63286;SDS011;49410;55.708;37.522;2022-12-07T00:27:35;6.63;;;2.53;;
63286;SDS011;49410;55.708;37.522;2022-12-07T00:30:00;11.00;;;2.72;;
63286;SDS011;49410;55.708;37.522;2022-12-07T00:32:26;7.45;;;2.70;;
63286;SDS011;49410;55.708;37.522;2022-12-07T00:34:51;5.63;;;2.22;;
63286;SDS011;49410;55.708;37.522;2022-12-07T00:37:17;7.18;;;3.10;;
63286;SDS011;49410;55.708;37.522;2022-12-07T00:39:42;6.25;;;2.65;;
63286;SDS011;49410;55.708;37.522;2022-12-07T00:42:08;9.38;;;3.10;;
63286;SDS011;49410;55.708;37.522;2022-12-07T00:44:33;8.85;;;3.35;;
63286;SDS011;49410;55.708;37.522;2022-12-07T00:46:59;6.00;;;2.85;;
63286;SDS011;49410;55.708;37.522;2022-12-07T00:49:24;7.78;;;2.80;;
63286;SDS011;49410;55.708;37.522;2022-12-07T00:51:50;6.22;;;2.97;;
63286;SDS011;49410;55.708;37.522;2022-12-07T00:54:15;8.02;;;3.53;;
63286;SDS011;49410;55.708;37.522;2022-12-07T00:56:41;4.90;;;2.90;;
63286;SDS011;49410;55.708;37.522;2022-12-07T00:59:06;7.47;;;2.63;;
63286;SDS011;49410;55.708;37.522;2022-12-07T01:01:33;9.02;;;3.50;;
63286;SDS011;49410;55.708;37.522;2022-12-07T01:04:01;7.22;;;2.92;;
63286;SDS011;49410;55.708;37.522;2022-12-07T01:06:27;7.18;;;2.97;;
63286;SDS011;49410;55.708;37.522;2022-12-07T01:08:53;4.95;;;1.92;;
63286;SDS011;49410;55.708;37.522;2022-12-07T01:13:46;6.65;;;3.08;;
63286;SDS011;49410;55.708;37.522;2022-12-07T01:16:15;9.27;;;3.17;;
63286;SDS011;49410;55.708;37.522;2022-12-07T01:18:41;9.40;;;2.90;;
63286;SDS011;49410;55.708;37.522;2022-12-07T01:21:25;7.95;;;3.42;;
63286;SDS011;49410;55.708;37.522;2022-12-07T01:23:53;6.07;;;2.70;;
63286;SDS011;49410;55.708;37.522;2022-12-07T01:26:20;5.22;;;2.30;;
63286;SDS011;49410;55.708;37.522;2022-12-07T01:28:47;6.63;;;2.88;;
63286;SDS011;49410;55.708;37.522;2022-12-07T01:33:41;7.78;;;2.72;;
63286;SDS011;49410;55.708;37.522;2022-12-07T01:36:12;7.25;;;2.90;;
63286;SDS011;49410;55.708;37.522;2022-12-07T01:38:42;7.95;;;2.15;;
63286;SDS011;49410;55.708;37.522;2022-12-07T01:41:09;7.25;;;2.53;;
63286;SDS011;49410;55.708;37.522;2022-12-07T01:43:35;8.43;;;2.90;;
63286;SDS011;49410;55.708;37.522;2022-12-07T01:46:01;7.05;;;2.10;;
63286;SDS011;49410;55.708;37.522;2022-12-07T01:48:32;6.30;;;3.05;;
63286;SDS011;49410;55.708;37.522;2022-12-07T01:51:06;6.05;;;2.90;;
63286;SDS011;49410;55.708;37.522;2022-12-07T01:53:36;8.65;;;3.20;;
63286;SDS011;49410;55.708;37.522;2022-12-07T01:56:08;7.32;;;3.17;;
63286;SDS011;49410;55.708;37.522;2022-12-07T01:58:36;9.35;;;2.75;;
63286;SDS011;49410;55.708;37.522;2022-12-07T02:03:36;6.25;;;2.88;;
63286;SDS011;49410;55.708;37.522;2022-12-07T02:06:04;7.30;;;2.72;;
63286;SDS011;49410;55.708;37.522;2022-12-07T02:08:31;7.50;;;3.38;;
63286;SDS011;49410;55.708;37.522;2022-12-07T02:10:57;8.40;;;2.50;;
63286;SDS011;49410;55.708;37.522;2022-12-07T02:13:24;7.45;;;2.70;;
63286;SDS011;49410;55.708;37.522;2022-12-07T02:27:07;11.02;;;3.60;;
63286;SDS011;49410;55.708;37.522;2022-12-07T02:32:44;7.22;;;2.83;;
63286;SDS011;49410;55.708;37.522;2022-12-07T02:40:40;7.13;;;2.95;;
63286;SDS011;49410;55.708;37.522;2022-12-07T02:45:46;6.32;;;2.92;;
63286;SDS011;49410;55.708;37.522;2022-12-07T02:48:13;6.47;;;2.47;;
63286;SDS011;49410;55.708;37.522;2022-12-07T02:50:48;6.30;;;2.70;;
63286;SDS011;49410;55.708;37.522;2022-12-07T02:56:19;11.65;;;3.08;;
63286;SDS011;49410;55.708;37.522;2022-12-07T02:59:10;7.40;;;2.80;;
63286;SDS011;49410;55.708;37.522;2022-12-07T03:07:00;5.32;;;2.47;;
63286;SDS011;49410;55.708;37.522;2022-12-07T03:10:05;5.80;;;2.58;;
63286;SDS011;49410;55.708;37.522;2022-12-07T03:12:43;6.53;;;2.95;;
63286;SDS011;49410;55.708;37.522;2022-12-07T03:15:40;6.97;;;3.17;;
63286;SDS011;49410;55.708;37.522;2022-12-07T03:18:12;8.70;;;3.00;;
63286;SDS011;49410;55.708;37.522;2022-12-07T03:20:41;6.50;;;2.50;;
63286;SDS011;49410;55.708;37.522;2022-12-07T03:23:08;7.57;;;3.25;;
63286;SDS011;49410;55.708;37.522;2022-12-07T03:25:39;6.93;;;2.83;;
63286;SDS011;49410;55.708;37.522;2022-12-07T03:28:08;8.02;;;3.03;;
63286;SDS011;49410;55.708;37.522;2022-12-07T03:30:39;8.18;;;2.42;;
63286;SDS011;49410;55.708;37.522;2022-12-07T03:33:18;6.10;;;2.72;;
63286;SDS011;49410;55.708;37.522;2022-12-07T03:35:49;6.53;;;2.95;;
63286;SDS011;49410;55.708;37.522;2022-12-07T03:38:24;5.72;;;2.00;;
63286;SDS011;49410;55.708;37.522;2022-12-07T03:40:58;5.68;;;2.35;;
63286;SDS011;49410;55.708;37.522;2022-12-07T03:43:29;7.10;;;2.83;;
63286;SDS011;49410;55.708;37.522;2022-12-07T03:51:00;7.13;;;2.67;;
63286;SDS011;49410;55.708;37.522;2022-12-07T03:53:34;7.75;;;3.13;;
63286;SDS011;49410;55.708;37.522;2022-12-07T03:56:04;6.05;;;2.63;;
63286;SDS011;49410;55.708;37.522;2022-12-07T03:58:32;4.97;;;2.42;;
63286;SDS011;49410;55.708;37.522;2022-12-07T04:00:59;8.55;;;3.25;;
63286;SDS011;49410;55.708;37.522;2022-12-07T04:03:24;7.15;;;2.97;;
63286;SDS011;49410;55.708;37.522;2022-12-07T04:05:50;7.72;;;3.38;;
63286;SDS011;49410;55.708;37.522;2022-12-07T04:08:16;7.45;;;3.10;;
63286;SDS011;49410;55.708;37.522;2022-12-07T04:10:41;6.85;;;3.20;;
63286;SDS011;49410;55.708;37.522;2022-12-07T04:13:07;6.20;;;2.72;;
63286;SDS011;49410;55.708;37.522;2022-12-07T04:15:32;4.50;;;2.47;;
63286;SDS011;49410;55.708;37.522;2022-12-07T04:17:58;7.70;;;2.50;;
63286;SDS011;49410;55.708;37.522;2022-12-07T04:20:23;8.25;;;3.08;;
63286;SDS011;49410;55.708;37.522;2022-12-07T04:22:49;6.40;;;3.03;;
63286;SDS011;49410;55.708;37.522;2022-12-07T04:25:14;8.70;;;3.60;;
63286;SDS011;49410;55.708;37.522;2022-12-07T04:27:40;6.78;;;2.40;;
63286;SDS011;49410;55.708;37.522;2022-12-07T04:30:06;9.10;;;3.67;;
63286;SDS011;49410;55.708;37.522;2022-12-07T04:32:32;7.70;;;3.47;;
63286;SDS011;49410;55.708;37.522;2022-12-07T04:34:57;7.95;;;2.63;;
63286;SDS011;49410;55.708;37.522;2022-12-07T04:37:23;7.85;;;3.08;;
63286;SDS011;49410;55.708;37.522;2022-12-07T04:39:49;6.25;;;3.10;;
63286;SDS011;49410;55.708;37.522;2022-12-07T04:42:14;6.53;;;3.60;;
63286;SDS011;49410;55.708;37.522;2022-12-07T04:44:40;6.80;;;2.75;;
63286;SDS011;49410;55.708;37.522;2022-12-07T04:47:06;7.10;;;3.15;;
63286;SDS011;49410;55.708;37.522;2022-12-07T04:49:31;5.78;;;2.63;;
63286;SDS011;49410;55.708;37.522;2022-12-07T04:51:57;6.63;;;2.90;;
63286;SDS011;49410;55.708;37.522;2022-12-07T04:54:23;6.57;;;2.67;;
63286;SDS011;49410;55.708;37.522;2022-12-07T04:56:48;8.25;;;3.25;;
63286;SDS011;49410;55.708;37.522;2022-12-07T04:59:14;5.88;;;3.28;;
63286;SDS011;49410;55.708;37.522;2022-12-07T05:01:41;5.85;;;2.80;;
63286;SDS011;49410;55.708;37.522;2022-12-07T05:04:07;5.90;;;2.80;;
63286;SDS011;49410;55.708;37.522;2022-12-07T05:06:33;5.60;;;2.72;;
63286;SDS011;49410;55.708;37.522;2022-12-07T05:08:59;7.47;;;3.05;;
63286;SDS011;49410;55.708;37.522;2022-12-07T05:11:25;9.30;;;2.92;;
63286;SDS011;49410;55.708;37.522;2022-12-07T05:14:07;6.40;;;3.13;;
63286;SDS011;49410;55.708;37.522;2022-12-07T05:16:35;6.97;;;2.45;;
63286;SDS011;49410;55.708;37.522;2022-12-07T05:19:01;5.43;;;2.45;;
63286;SDS011;49410;55.708;37.522;2022-12-07T05:21:27;6.75;;;2.88;;
63286;SDS011;49410;55.708;37.522;2022-12-07T05:23:52;5.25;;;2.65;;
63286;SDS011;49410;55.708;37.522;2022-12-07T05:26:18;9.40;;;3.38;;
63286;SDS011;49410;55.708;37.522;2022-12-07T05:28:43;7.93;;;3.13;;
63286;SDS011;49410;55.708;37.522;2022-12-07T05:31:09;7.65;;;3.42;;
63286;SDS011;49410;55.708;37.522;2022-12-07T05:33:34;6.82;;;2.95;;
63286;SDS011;49410;55.708;37.522;2022-12-07T05:36:00;7.38;;;3.38;;
63286;SDS011;49410;55.708;37.522;2022-12-07T05:38:30;6.72;;;3.47;;
63286;SDS011;49410;55.708;37.522;2022-12-07T05:40:59;5.63;;;3.10;;
63286;SDS011;49410;55.708;37.522;2022-12-07T05:43:26;6.10;;;2.72;;
63286;SDS011;49410;55.708;37.522;2022-12-07T05:45:52;8.93;;;3.67;;
63286;SDS011;49410;55.708;37.522;2022-12-07T05:48:17;7.57;;;3.55;;
63286;SDS011;49410;55.708;37.522;2022-12-07T05:50:43;10.23;;;3.97;;
63286;SDS011;49410;55.708;37.522;2022-12-07T05:53:08;8.50;;;3.78;;
63286;SDS011;49410;55.708;37.522;2022-12-07T05:55:34;6.97;;;3.50;;
63286;SDS011;49410;55.708;37.522;2022-12-07T05:57:59;5.63;;;2.58;;
63286;SDS011;49410;55.708;37.522;2022-12-07T06:00:43;6.05;;;3.13;;
63286;SDS011;49410;55.708;37.522;2022-12-07T06:03:08;7.57;;;3.03;;
63286;SDS011;49410;55.708;37.522;2022-12-07T06:05:34;7.50;;;3.55;;
63286;SDS011;49410;55.708;37.522;2022-12-07T06:07:59;4.75;;;2.67;;
63286;SDS011;49410;55.708;37.522;2022-12-07T06:10:25;7.85;;;3.20;;
63286;SDS011;49410;55.708;37.522;2022-12-07T06:12:50;8.90;;;3.67;;
63286;SDS011;49410;55.708;37.522;2022-12-07T06:15:16;9.38;;;3.63;;
63286;SDS011;49410;55.708;37.522;2022-12-07T06:17:41;8.35;;;4.03;;
63286;SDS011;49410;55.708;37.522;2022-12-07T06:20:07;6.80;;;3.25;;
63286;SDS011;49410;55.708;37.522;2022-12-07T06:22:33;12.30;;;3.13;;
63286;SDS011;49410;55.708;37.522;2022-12-07T06:24:58;7.18;;;3.70;;
63286;SDS011;49410;55.708;37.522;2022-12-07T06:27:24;15.38;;;3.53;;
63286;SDS011;49410;55.708;37.522;2022-12-07T06:29:50;9.60;;;2.65;;
63286;SDS011;49410;55.708;37.522;2022-12-07T06:32:16;10.23;;;3.72;;
63286;SDS011;49410;55.708;37.522;2022-12-07T06:34:41;8.27;;;4.07;;
63286;SDS011;49410;55.708;37.522;2022-12-07T06:37:07;8.73;;;3.67;;
63286;SDS011;49410;55.708;37.522;2022-12-07T06:39:32;8.50;;;3.22;;
63286;SDS011;49410;55.708;37.522;2022-12-07T06:41:58;11.50;;;4.65;;
63286;SDS011;49410;55.708;37.522;2022-12-07T06:44:24;7.65;;;3.40;;
63286;SDS011;49410;55.708;37.522;2022-12-07T06:46:50;8.23;;;3.60;;
63286;SDS011;49410;55.708;37.522;2022-12-07T06:49:16;9.23;;;3.58;;
63286;SDS011;49410;55.708;37.522;2022-12-07T06:51:42;9.68;;;4.43;;
63286;SDS011;49410;55.708;37.522;2022-12-07T06:54:08;10.13;;;4.25;;
63286;SDS011;49410;55.708;37.522;2022-12-07T06:56:34;8.60;;;3.78;;
63286;SDS011;49410;55.708;37.522;2022-12-07T06:59:00;12.52;;;4.72;;
63286;SDS011;49410;55.708;37.522;2022-12-07T07:01:26;9.25;;;4.10;;
63286;SDS011;49410;55.708;37.522;2022-12-07T07:03:51;12.13;;;4.20;;
63286;SDS011;49410;55.708;37.522;2022-12-07T07:06:17;9.65;;;4.70;;
63286;SDS011;49410;55.708;37.522;2022-12-07T07:08:42;9.38;;;3.80;;
63286;SDS011;49410;55.708;37.522;2022-12-07T07:11:08;10.07;;;4.90;;
63286;SDS011;49410;55.708;37.522;2022-12-07T07:13:35;9.05;;;3.78;;
63286;SDS011;49410;55.708;37.522;2022-12-07T07:16:01;7.57;;;4.20;;
63286;SDS011;49410;55.708;37.522;2022-12-07T07:18:27;10.18;;;4.13;;
63286;SDS011;49410;55.708;37.522;2022-12-07T07:20:53;11.45;;;3.75;;
63286;SDS011;49410;55.708;37.522;2022-12-07T07:23:19;13.05;;;4.55;;
63286;SDS011;49410;55.708;37.522;2022-12-07T07:25:46;11.85;;;4.88;;
63286;SDS011;49410;55.708;37.522;2022-12-07T07:28:12;10.07;;;3.85;;
63286;SDS011;49410;55.708;37.522;2022-12-07T07:30:37;10.02;;;4.20;;
63286;SDS011;49410;55.708;37.522;2022-12-07T07:33:03;9.45;;;3.45;;
63286;SDS011;49410;55.708;37.522;2022-12-07T07:35:30;7.95;;;3.75;;
63286;SDS011;49410;55.708;37.522;2022-12-07T07:37:57;11.80;;;4.82;;
63286;SDS011;49410;55.708;37.522;2022-12-07T07:40:22;15.40;;;4.25;;
63286;SDS011;49410;55.708;37.522;2022-12-07T07:42:49;13.45;;;4.45;;
63286;SDS011;49410;55.708;37.522;2022-12-07T07:45:16;11.00;;;4.50;;
63286;SDS011;49410;55.708;37.522;2022-12-07T07:47:43;8.10;;;3.80;;
63286;SDS011;49410;55.708;37.522;2022-12-07T07:50:08;10.00;;;4.32;;
63286;SDS011;49410;55.708;37.522;2022-12-07T07:52:34;11.40;;;4.75;;
63286;SDS011;49410;55.708;37.522;2022-12-07T07:55:00;11.45;;;4.63;;
63286;SDS011;49410;55.708;37.522;2022-12-07T07:57:25;11.10;;;4.72;;
63286;SDS011;49410;55.708;37.522;2022-12-07T07:59:52;11.65;;;4.63;;
63286;SDS011;49410;55.708;37.522;2022-12-07T08:02:18;8.40;;;3.67;;
63286;SDS011;49410;55.708;37.522;2022-12-07T08:04:45;10.93;;;4.75;;
63286;SDS011;49410;55.708;37.522;2022-12-07T08:07:11;10.20;;;4.38;;
63286;SDS011;49410;55.708;37.522;2022-12-07T08:09:37;14.10;;;4.28;;
63286;SDS011;49410;55.708;37.522;2022-12-07T08:12:03;10.75;;;4.78;;
63286;SDS011;49410;55.708;37.522;2022-12-07T08:14:29;9.32;;;3.28;;
63286;SDS011;49410;55.708;37.522;2022-12-07T08:16:55;8.18;;;3.17;;
63286;SDS011;49410;55.708;37.522;2022-12-07T08:19:21;9.45;;;4.10;;
63286;SDS011;49410;55.708;37.522;2022-12-07T08:21:47;13.85;;;5.07;;
63286;SDS011;49410;55.708;37.522;2022-12-07T08:24:13;11.77;;;3.95;;
63286;SDS011;49410;55.708;37.522;2022-12-07T08:26:38;11.50;;;5.18;;
63286;SDS011;49410;55.708;37.522;2022-12-07T08:29:07;10.60;;;4.63;;
63286;SDS011;49410;55.708;37.522;2022-12-07T08:31:33;8.45;;;3.42;;
63286;SDS011;49410;55.708;37.522;2022-12-07T08:33:59;8.70;;;4.55;;
63286;SDS011;49410;55.708;37.522;2022-12-07T08:36:25;9.38;;;3.88;;
63286;SDS011;49410;55.708;37.522;2022-12-07T08:38:51;11.23;;;4.82;;
63286;SDS011;49410;55.708;37.522;2022-12-07T08:41:17;11.10;;;4.53;;
63286;SDS011;49410;55.708;37.522;2022-12-07T08:43:43;12.35;;;4.53;;
63286;SDS011;49410;55.708;37.522;2022-12-07T08:46:10;11.95;;;4.13;;
63286;SDS011;49410;55.708;37.522;2022-12-07T08:48:58;12.55;;;4.32;;
63286;SDS011;49410;55.708;37.522;2022-12-07T08:51:29;11.50;;;5.07;;
63286;SDS011;49410;55.708;37.522;2022-12-07T08:53:55;10.90;;;4.60;;
63286;SDS011;49410;55.708;37.522;2022-12-07T08:56:23;7.63;;;3.78;;
63286;SDS011;49410;55.708;37.522;2022-12-07T08:58:50;10.48;;;4.40;;
63286;SDS011;49410;55.708;37.522;2022-12-07T09:01:15;11.45;;;5.22;;
63286;SDS011;49410;55.708;37.522;2022-12-07T09:03:41;9.80;;;4.68;;
63286;SDS011;49410;55.708;37.522;2022-12-07T09:06:07;11.55;;;4.47;;
63286;SDS011;49410;55.708;37.522;2022-12-07T09:08:34;8.07;;;3.78;;
63286;SDS011;49410;55.708;37.522;2022-12-07T09:11:02;12.35;;;4.43;;
63286;SDS011;49410;55.708;37.522;2022-12-07T09:13:28;10.40;;;4.30;;
63286;SDS011;49410;55.708;37.522;2022-12-07T09:15:54;10.25;;;4.07;;
63286;SDS011;49410;55.708;37.522;2022-12-07T09:18:19;8.63;;;4.03;;
63286;SDS011;49410;55.708;37.522;2022-12-07T09:20:44;10.48;;;4.75;;
63286;SDS011;49410;55.708;37.522;2022-12-07T09:23:10;11.07;;;4.00;;
63286;SDS011;49410;55.708;37.522;2022-12-07T09:25:35;8.52;;;3.88;;
63286;SDS011;49410;55.708;37.522;2022-12-07T09:28:01;8.20;;;3.90;;
63286;SDS011;49410;55.708;37.522;2022-12-07T09:30:27;10.40;;;4.93;;
63286;SDS011;49410;55.708;37.522;2022-12-07T09:32:53;7.80;;;3.03;;
63286;SDS011;49410;55.708;37.522;2022-12-07T09:35:20;11.75;;;4.40;;
63286;SDS011;49410;55.708;37.522;2022-12-07T09:40:12;9.20;;;3.70;;
63286;SDS011;49410;55.708;37.522;2022-12-07T09:42:41;9.18;;;4.13;;
63286;SDS011;49410;55.708;37.522;2022-12-07T09:45:12;9.40;;;4.03;;
63286;SDS011;49410;55.708;37.522;2022-12-07T09:47:58;10.35;;;4.35;;
63286;SDS011;49410;55.708;37.522;2022-12-07T09:50:26;10.27;;;3.80;;
63286;SDS011;49410;55.708;37.522;2022-12-07T09:52:52;9.57;;;4.18;;
63286;SDS011;49410;55.708;37.522;2022-12-07T09:55:23;7.85;;;4.03;;
63286;SDS011;49410;55.708;37.522;2022-12-07T10:00:48;7.32;;;3.65;;
63286;SDS011;49410;55.708;37.522;2022-12-07T10:05:46;10.20;;;3.22;;
63286;SDS011;49410;55.708;37.522;2022-12-07T10:08:14;7.07;;;3.15;;
63286;SDS011;49410;55.708;37.522;2022-12-07T10:10:43;9.65;;;3.88;;
63286;SDS011;49410;55.708;37.522;2022-12-07T10:13:11;14.73;;;4.22;;
63286;SDS011;49410;55.708;37.522;2022-12-07T10:23:34;6.70;;;3.17;;
63286;SDS011;49410;55.708;37.522;2022-12-07T10:31:40;11.32;;;3.70;;
63286;SDS011;49410;55.708;37.522;2022-12-07T10:34:14;8.70;;;3.15;;
63286;SDS011;49410;55.708;37.522;2022-12-07T10:36:49;9.02;;;4.28;;
63286;SDS011;49410;55.708;37.522;2022-12-07T10:39:20;7.03;;;2.97;;
63286;SDS011;49410;55.708;37.522;2022-12-07T10:41:53;9.05;;;4.35;;
63286;SDS011;49410;55.708;37.522;2022-12-07T10:44:21;9.60;;;4.38;;
63286;SDS011;49410;55.708;37.522;2022-12-07T10:52:26;13.80;;;4.90;;
63286;SDS011;49410;55.708;37.522;2022-12-07T11:00:21;11.98;;;4.15;;
63286;SDS011;49410;55.708;37.522;2022-12-07T11:11:02;10.27;;;4.10;;
63286;SDS011;49410;55.708;37.522;2022-12-07T11:16:19;10.68;;;4.63;;
63286;SDS011;49410;55.708;37.522;2022-12-07T11:19:11;9.48;;;4.32;;
63286;SDS011;49410;55.708;37.522;2022-12-07T11:21:57;7.95;;;4.00;;
63286;SDS011;49410;55.708;37.522;2022-12-07T11:25:01;8.80;;;3.30;;
63286;SDS011;49410;55.708;37.522;2022-12-07T11:30:23;10.15;;;4.10;;
63286;SDS011;49410;55.708;37.522;2022-12-07T11:39:06;9.55;;;4.00;;
63286;SDS011;49410;55.708;37.522;2022-12-07T11:42:06;11.25;;;4.68;;
63286;SDS011;49410;55.708;37.522;2022-12-07T11:44:52;12.45;;;3.88;;
63286;SDS011;49410;55.708;37.522;2022-12-07T11:47:27;12.52;;;4.90;;
63286;SDS011;49410;55.708;37.522;2022-12-07T11:50:05;11.85;;;4.10;;
63286;SDS011;49410;55.708;37.522;2022-12-07T12:01:25;14.75;;;5.03;;
63286;SDS011;49410;55.708;37.522;2022-12-07T12:06:40;9.32;;;4.25;;
63286;SDS011;49410;55.708;37.522;2022-12-07T12:09:20;12.00;;;4.97;;
63286;SDS011;49410;55.708;37.522;2022-12-07T12:17:58;10.00;;;4.45;;
63286;SDS011;49410;55.708;37.522;2022-12-07T12:20:37;10.25;;;4.00;;
63286;SDS011;49410;55.708;37.522;2022-12-07T12:23:18;12.35;;;4.70;;
63286;SDS011;49410;55.708;37.522;2022-12-07T12:25:48;11.50;;;4.88;;
63286;SDS011;49410;55.708;37.522;2022-12-07T12:28:22;13.90;;;5.10;;
63286;SDS011;49410;55.708;37.522;2022-12-07T12:31:08;11.95;;;4.75;;
63286;SDS011;49410;55.708;37.522;2022-12-07T12:33:43;10.98;;;4.38;;
63286;SDS011;49410;55.708;37.522;2022-12-07T12:36:18;10.98;;;4.38;;
63286;SDS011;49410;55.708;37.522;2022-12-07T12:46:50;14.88;;;5.80;;
63286;SDS011;49410;55.708;37.522;2022-12-07T12:51:52;13.32;;;4.75;;
63286;SDS011;49410;55.708;37.522;2022-12-07T12:57:00;11.73;;;4.68;;
63286;SDS011;49410;55.708;37.522;2022-12-07T12:59:37;11.98;;;4.80;;
63286;SDS011;49410;55.708;37.522;2022-12-07T13:13:03;12.48;;;4.70;;
63286;SDS011;49410;55.708;37.522;2022-12-07T13:15:33;11.07;;;4.85;;
63286;SDS011;49410;55.708;37.522;2022-12-07T13:21:00;11.80;;;5.30;;
63286;SDS011;49410;55.708;37.522;2022-12-07T13:26:13;8.15;;;4.45;;
63286;SDS011;49410;55.708;37.522;2022-12-07T13:28:44;6.88;;;3.90;;
63286;SDS011;49410;55.708;37.522;2022-12-07T13:33:49;11.35;;;5.22;;
63286;SDS011;49410;55.708;37.522;2022-12-07T13:36:25;11.57;;;5.05;;
63286;SDS011;49410;55.708;37.522;2022-12-07T13:39:09;11.27;;;4.45;;
63286;SDS011;49410;55.708;37.522;2022-12-07T13:41:42;10.90;;;4.55;;
63286;SDS011;49410;55.708;37.522;2022-12-07T13:46:44;11.57;;;5.50;;
63286;SDS011;49410;55.708;37.522;2022-12-07T13:49:31;10.20;;;4.72;;
63286;SDS011;49410;55.708;37.522;2022-12-07T13:54:43;11.43;;;5.65;;
63286;SDS011;49410;55.708;37.522;2022-12-07T13:57:10;11.48;;;4.38;;
63286;SDS011;49410;55.708;37.522;2022-12-07T13:59:35;12.00;;;4.60;;
63286;SDS011;49410;55.708;37.522;2022-12-07T14:02:16;13.75;;;4.53;;
63286;SDS011;49410;55.708;37.522;2022-12-07T14:05:06;14.48;;;5.28;;
63286;SDS011;49410;55.708;37.522;2022-12-07T14:08:39;11.13;;;4.90;;
63286;SDS011;49410;55.708;37.522;2022-12-07T14:10:37;10.70;;;4.97;;
63286;SDS011;49410;55.708;37.522;2022-12-07T14:15:52;9.20;;;4.30;;
63286;SDS011;49410;55.708;37.522;2022-12-07T14:18:52;22.75;;;6.47;;
63286;SDS011;49410;55.708;37.522;2022-12-07T14:23:36;8.38;;;3.45;;
63286;SDS011;49410;55.708;37.522;2022-12-07T14:26:07;10.68;;;4.53;;
63286;SDS011;49410;55.708;37.522;2022-12-07T14:28:40;6.88;;;3.45;;
63286;SDS011;49410;55.708;37.522;2022-12-07T14:31:12;13.23;;;4.90;;
63286;SDS011;49410;55.708;37.522;2022-12-07T14:33:39;12.77;;;5.60;;
63286;SDS011;49410;55.708;37.522;2022-12-07T14:36:05;9.40;;;4.25;;
63286;SDS011;49410;55.708;37.522;2022-12-07T14:38:33;13.23;;;4.93;;
63286;SDS011;49410;55.708;37.522;2022-12-07T14:40:59;12.20;;;4.95;;
63286;SDS011;49410;55.708;37.522;2022-12-07T14:43:45;9.98;;;4.55;;
63286;SDS011;49410;55.708;37.522;2022-12-07T14:46:11;13.70;;;5.25;;
63286;SDS011;49410;55.708;37.522;2022-12-07T14:48:36;11.27;;;4.72;;
63286;SDS011;49410;55.708;37.522;2022-12-07T14:51:02;12.43;;;5.47;;
63286;SDS011;49410;55.708;37.522;2022-12-07T14:53:31;13.07;;;5.63;;
63286;SDS011;49410;55.708;37.522;2022-12-07T14:56:00;13.32;;;5.07;;
63286;SDS011;49410;55.708;37.522;2022-12-07T14:58:27;10.95;;;4.18;;
63286;SDS011;49410;55.708;37.522;2022-12-07T15:00:52;8.48;;;3.45;;
63286;SDS011;49410;55.708;37.522;2022-12-07T15:03:18;16.35;;;4.90;;
63286;SDS011;49410;55.708;37.522;2022-12-07T15:05:43;15.35;;;4.80;;
63286;SDS011;49410;55.708;37.522;2022-12-07T15:08:10;13.35;;;4.60;;
63286;SDS011;49410;55.708;37.522;2022-12-07T15:10:37;9.93;;;4.60;;
63286;SDS011;49410;55.708;37.522;2022-12-07T15:13:04;9.55;;;4.03;;
63286;SDS011;49410;55.708;37.522;2022-12-07T15:15:49;10.38;;;5.00;;
63286;SDS011;49410;55.708;37.522;2022-12-07T15:18:16;9.32;;;4.47;;
63286;SDS011;49410;55.708;37.522;2022-12-07T15:20:42;12.40;;;4.63;;
63286;SDS011;49410;55.708;37.522;2022-12-07T15:23:08;12.20;;;4.78;;
63286;SDS011;49410;55.708;37.522;2022-12-07T15:25:34;14.52;;;4.38;;
63286;SDS011;49410;55.708;37.522;2022-12-07T15:27:59;12.20;;;4.88;;
63286;SDS011;49410;55.708;37.522;2022-12-07T15:30:25;11.35;;;4.97;;
63286;SDS011;49410;55.708;37.522;2022-12-07T15:32:51;14.60;;;5.18;;
63286;SDS011;49410;55.708;37.522;2022-12-07T15:35:18;13.60;;;4.63;;
63286;SDS011;49410;55.708;37.522;2022-12-07T15:37:44;11.55;;;4.82;;
63286;SDS011;49410;55.708;37.522;2022-12-07T15:40:10;13.70;;;5.10;;
63286;SDS011;49410;55.708;37.522;2022-12-07T15:42:36;13.85;;;5.90;;
63286;SDS011;49410;55.708;37.522;2022-12-07T15:45:02;9.75;;;5.35;;
63286;SDS011;49410;55.708;37.522;2022-12-07T15:50:50;12.80;;;5.65;;
63286;SDS011;49410;55.708;37.522;2022-12-07T15:53:16;11.15;;;4.80;;
63286;SDS011;49410;55.708;37.522;2022-12-07T15:55:42;8.93;;;3.85;;
63286;SDS011;49410;55.708;37.522;2022-12-07T15:58:07;14.27;;;5.43;;
63286;SDS011;49410;55.708;37.522;2022-12-07T16:00:33;13.85;;;4.97;;
63286;SDS011;49410;55.708;37.522;2022-12-07T16:02:58;11.23;;;5.20;;
63286;SDS011;49410;55.708;37.522;2022-12-07T16:05:24;13.25;;;5.32;;
63286;SDS011;49410;55.708;37.522;2022-12-07T16:07:49;12.95;;;5.65;;
63286;SDS011;49410;55.708;37.522;2022-12-07T16:10:15;15.32;;;4.88;;
63286;SDS011;49410;55.708;37.522;2022-12-07T16:12:40;13.00;;;5.47;;
63286;SDS011;49410;55.708;37.522;2022-12-07T16:15:06;14.55;;;5.45;;
63286;SDS011;49410;55.708;37.522;2022-12-07T16:19:57;8.80;;;4.40;;
63286;SDS011;49410;55.708;37.522;2022-12-07T16:22:23;10.98;;;4.68;;
63286;SDS011;49410;55.708;37.522;2022-12-07T16:24:48;10.13;;;4.55;;
63286;SDS011;49410;55.708;37.522;2022-12-07T16:27:14;11.68;;;4.30;;
63286;SDS011;49410;55.708;37.522;2022-12-07T16:29:39;16.83;;;5.68;;
63286;SDS011;49410;55.708;37.522;2022-12-07T16:32:05;12.82;;;5.43;;
63286;SDS011;49410;55.708;37.522;2022-12-07T16:34:30;14.15;;;5.57;;
63286;SDS011;49410;55.708;37.522;2022-12-07T16:36:57;10.75;;;5.13;;
63286;SDS011;49410;55.708;37.522;2022-12-07T16:39:22;10.50;;;4.82;;
63286;SDS011;49410;55.708;37.522;2022-12-07T16:41:49;11.73;;;4.78;;
63286;SDS011;49410;55.708;37.522;2022-12-07T16:44:15;12.38;;;5.05;;
63286;SDS011;49410;55.708;37.522;2022-12-07T16:46:41;13.32;;;4.82;;
63286;SDS011;49410;55.708;37.522;2022-12-07T16:51:36;8.02;;;4.90;;
63286;SDS011;49410;55.708;37.522;2022-12-07T16:54:02;11.65;;;4.35;;
63286;SDS011;49410;55.708;37.522;2022-12-07T16:56:27;11.10;;;4.80;;
63286;SDS011;49410;55.708;37.522;2022-12-07T16:58:54;13.77;;;5.75;;
63286;SDS011;49410;55.708;37.522;2022-12-07T17:01:20;13.52;;;5.30;;
63286;SDS011;49410;55.708;37.522;2022-12-07T17:03:47;11.77;;;4.45;;
63286;SDS011;49410;55.708;37.522;2022-12-07T17:06:14;8.35;;;4.25;;
63286;SDS011;49410;55.708;37.522;2022-12-07T17:08:48;12.70;;;4.35;;
63286;SDS011;49410;55.708;37.522;2022-12-07T17:11:16;12.02;;;4.95;;
63286;SDS011;49410;55.708;37.522;2022-12-07T17:13:43;15.82;;;5.47;;
63286;SDS011;49410;55.708;37.522;2022-12-07T17:16:27;17.90;;;5.93;;
63286;SDS011;49410;55.708;37.522;2022-12-07T17:18:54;11.10;;;5.25;;
63286;SDS011;49410;55.708;37.522;2022-12-07T17:21:19;11.02;;;4.93;;